Time;durP1;ratioP1;P1;durP2;ratioP2;P2;SDS_P1;SDS_P2;PMS_P1;PMS_P2;Temp;Humidity;BMP_temperature;BMP_pressure;BME280_temperature;BME280_humidity;BME280_pressure;Samples;Min_cycle;Max_cycle;Signal;HPM_P1;HPM_P2
2022/03/21 00:01:10;;;;;;;26.67;17.43;;;;;;;10.34;50.46;101939.41;5098806;28;20214;-65
2022/03/21 00:03:40;;;;;;;26.43;17.37;;;;;;;10.32;49.67;101937.81;5098523;28;20295;-66
2022/03/21 00:06:09;;;;;;;26.33;17.07;;;;;;;10.55;49.74;101934.38;5100100;28;20235;-65
2022/03/21 00:08:38;;;;;;;23.67;15.97;;;;;;;10.59;49.44;101935.81;5096922;28;20278;-64
2022/03/21 00:11:09;;;;;;;27.10;18.30;;;;;;;10.55;49.72;101934.38;5095766;28;20635;-65
2022/03/21 00:13:38;;;;;;;30.60;17.77;;;;;;;10.51;49.30;101932.88;5096846;28;20206;-64
2022/03/21 00:16:07;;;;;;;30.80;17.60;;;;;;;10.25;50.84;101931.28;5118676;28;20567;-65
2022/03/21 00:18:36;;;;;;;26.93;17.47;;;;;;;10.12;50.79;101936.56;5121518;27;20274;-68
2022/03/21 00:21:04;;;;;;;28.67;17.67;;;;;;;9.89;51.28;101934.72;5123183;27;20336;-65
2022/03/21 00:23:33;;;;;;;28.27;17.07;;;;;;;10.03;50.82;101943.38;5124246;27;20216;-64
2022/03/21 00:26:01;;;;;;;32.40;19.27;;;;;;;9.58;52.40;101938.66;5123203;27;20205;-65
2022/03/21 00:28:29;;;;;;;27.20;17.83;;;;;;;9.57;52.11;101940.47;5124225;27;20284;-65
2022/03/21 00:30:56;;;;;;;32.53;19.03;;;;;;;9.60;52.77;101944.69;5117872;27;20210;-63
2022/03/21 00:33:25;;;;;;;28.97;18.27;;;;;;;9.52;52.80;101939.91;5121409;27;20201;-65
2022/03/21 00:35:55;;;;;;;34.63;18.63;;;;;;;9.73;52.74;101956.13;5121610;27;20244;-64
2022/03/21 00:38:23;;;;;;;28.80;17.90;;;;;;;9.71;52.78;101944.78;5124213;27;20217;-65
2022/03/21 00:40:51;;;;;;;30.03;18.90;;;;;;;9.78;52.73;101948.72;5122554;27;20220;-63
2022/03/21 00:43:22;;;;;;;30.80;19.87;;;;;;;9.88;52.38;101944.47;5122981;27;20214;-64
2022/03/21 00:45:52;;;;;;;31.20;18.53;;;;;;;9.90;52.47;101947.84;5120081;27;20225;-64
2022/03/21 00:48:22;;;;;;;30.77;18.87;;;;;;;9.89;52.18;101956.75;5127363;27;20205;-65
2022/03/21 00:50:52;;;;;;;29.27;18.63;;;;;;;9.69;53.00;101947.56;5120315;27;20229;-66
2022/03/21 00:53:20;;;;;;;34.77;20.17;;;;;;;9.76;52.69;101946.16;5119780;27;20204;-65
2022/03/21 00:55:53;;;;;;;29.03;18.87;;;;;;;9.89;51.62;101946.16;5120783;27;20208;-64
2022/03/21 00:58:21;;;;;;;29.67;19.23;;;;;;;9.95;51.38;101953.66;5124441;27;20264;-65
2022/03/21 01:00:50;;;;;;;31.53;18.67;;;;;;;9.87;51.45;101953.38;5121813;27;20301;-63
2022/03/21 01:03:25;;;;;;;34.50;18.83;;;;;;;9.96;51.59;101947.41;5124527;27;20266;-64
2022/03/21 01:06:03;;;;;;;30.57;19.13;;;;;;;9.69;52.24;101949.34;5120981;27;20227;-64
2022/03/21 01:08:41;;;;;;;29.17;19.03;;;;;;;9.66;52.12;101944.28;5121529;27;20204;-65
2022/03/21 01:11:09;;;;;;;30.07;18.20;;;;;;;9.25;52.73;101947.94;5120459;27;20202;-65
2022/03/21 01:13:42;;;;;;;25.47;17.07;;;;;;;8.87;53.56;101945.25;5123563;27;20228;-64
2022/03/21 01:16:13;;;;;;;30.40;18.33;;;;;;;9.30;52.28;101937.06;5122049;27;20213;-64
2022/03/21 01:18:41;;;;;;;28.23;17.03;;;;;;;9.71;51.32;101939.50;5121390;27;20267;-64
2022/03/21 01:21:10;;;;;;;30.70;18.83;;;;;;;9.40;52.74;101941.63;5120829;27;20228;-65
2022/03/21 01:23:38;;;;;;;31.07;19.63;;;;;;;9.27;53.54;101948.69;5120214;27;20202;-64
2022/03/21 01:26:06;;;;;;;30.30;18.30;;;;;;;9.33;53.29;101942.13;5121774;27;20226;-63
2022/03/21 01:28:41;;;;;;;29.40;17.90;;;;;;;9.14;54.01;101953.13;5121110;27;20360;-65
2022/03/21 01:31:11;;;;;;;30.17;18.57;;;;;;;9.21;53.87;101953.56;5122210;27;20277;-64
2022/03/21 01:33:40;;;;;;;30.90;18.53;;;;;;;8.88;55.27;101954.03;5120072;27;20261;-64
2022/03/21 01:36:23;;;;;;;28.53;18.07;;;;;;;8.78;55.29;101960.88;5122070;27;20304;-64
2022/03/21 01:38:51;;;;;;;30.00;18.90;;;;;;;9.07;55.44;101951.81;5122444;27;20274;-65
2022/03/21 01:41:28;;;;;;;27.47;18.03;;;;;;;8.73;55.25;101960.28;5124179;27;20214;-65
2022/03/21 01:44:00;;;;;;;31.70;17.93;;;;;;;8.60;54.67;101957.63;5117884;27;20778;-65
2022/03/21 01:46:41;;;;;;;28.33;16.53;;;;;;;9.14;52.74;101960.22;5120020;27;20318;-65
2022/03/21 01:49:11;;;;;;;27.73;17.43;;;;;;;9.49;52.40;101952.53;5121838;27;20213;-65
2022/03/21 01:51:44;;;;;;;28.93;18.60;;;;;;;9.41;52.93;101956.53;5119911;27;20320;-65
2022/03/21 01:57:14;;;;;;;28.03;17.93;;;;;;;9.32;53.65;101969.59;5121858;27;20216;-63
2022/03/21 01:59:46;;;;;;;31.30;17.80;;;;;;;9.01;53.63;101968.13;5121240;27;20206;-63
2022/03/21 02:02:15;;;;;;;29.93;18.00;;;;;;;9.02;53.84;101973.31;5123131;27;20291;-64
2022/03/21 02:04:43;;;;;;;27.43;17.73;;;;;;;9.24;52.76;101963.94;5117237;27;20255;-65
2022/03/21 02:07:12;;;;;;;26.67;17.97;;;;;;;9.33;53.37;101969.44;5117876;27;20237;-64
2022/03/21 02:09:42;;;;;;;29.33;17.90;;;;;;;9.46;52.79;101963.34;5118982;27;20613;-65
2022/03/21 02:12:15;;;;;;;28.53;17.03;;;;;;;9.46;52.34;101968.63;5121460;27;20205;-65
2022/03/21 02:14:44;;;;;;;26.03;17.10;;;;;;;9.28;53.02;101965.44;5122416;27;20327;-64
2022/03/21 02:17:19;;;;;;;27.40;17.17;;;;;;;9.16;53.65;101972.38;5120876;27;20673;-66
2022/03/21 02:19:48;;;;;;;25.47;16.90;;;;;;;8.91;53.71;101977.63;5121321;27;20229;-63
2022/03/21 02:22:33;;;;;;;31.20;17.90;;;;;;;8.98;54.37;101973.59;5127903;27;20208;-65
2022/03/21 02:25:06;;;;;;;29.77;17.57;;;;;;;8.97;54.11;101969.28;5118266;27;20727;-63
2022/03/21 02:27:36;;;;;;;26.97;17.40;;;;;;;8.98;54.16;101978.91;5125774;27;20193;-64
2022/03/21 02:30:06;;;;;;;24.93;17.33;;;;;;;8.99;54.26;101980.59;5122121;27;20218;-64
2022/03/21 02:32:34;;;;;;;27.90;17.87;;;;;;;9.22;53.48;101977.28;5126735;27;20211;-65
2022/03/21 02:35:03;;;;;;;28.97;18.33;;;;;;;9.30;53.41;101974.13;5120730;27;20262;-64
2022/03/21 02:37:33;;;;;;;26.53;16.80;;;;;;;9.00;53.51;101977.00;5122576;27;20233;-65
2022/03/21 02:40:03;;;;;;;31.00;18.30;;;;;;;9.22;53.09;101972.00;5122608;27;20255;-65
2022/03/21 02:42:31;;;;;;;29.50;17.43;;;;;;;9.19;53.52;101974.84;5120973;27;20400;-64
2022/03/21 02:45:00;;;;;;;28.33;17.97;;;;;;;9.29;53.94;101970.63;5119076;27;20571;-64
2022/03/21 02:47:28;;;;;;;27.80;17.30;;;;;;;9.11;54.34;101977.16;5121452;27;20705;-66
2022/03/21 02:49:58;;;;;;;29.27;17.67;;;;;;;9.28;54.08;101974.22;5122129;27;20207;-66
2022/03/21 02:52:29;;;;;;;29.87;16.93;;;;;;;9.25;53.71;101971.78;5119266;27;20331;-65
2022/03/21 02:54:57;;;;;;;29.20;17.60;;;;;;;9.29;54.21;101973.28;5118334;27;20204;-64
2022/03/21 02:57:37;;;;;;;29.40;17.73;;;;;;;9.32;54.12;101973.06;5121677;27;20316;-65
2022/03/21 03:00:07;;;;;;;28.90;18.30;;;;;;;9.25;53.58;101970.94;5119599;27;20231;-64
2022/03/21 03:02:35;;;;;;;27.77;17.60;;;;;;;9.29;53.16;101970.63;5120000;27;20215;-65
2022/03/21 03:05:07;;;;;;;28.30;17.77;;;;;;;9.38;53.26;101977.94;5116849;27;20213;-65
2022/03/21 03:07:36;;;;;;;26.27;17.10;;;;;;;9.36;52.61;101981.66;5120812;27;20204;-65
2022/03/21 03:10:05;;;;;;;28.57;17.63;;;;;;;9.30;52.37;101980.28;5122577;27;20211;-64
2022/03/21 03:12:41;;;;;;;26.07;16.37;;;;;;;9.34;52.05;101989.69;5121485;27;20205;-66
2022/03/21 03:15:13;;;;;;;23.70;15.73;;;;;;;9.37;51.54;101984.19;5118327;27;20237;-65
2022/03/21 03:17:41;;;;;;;24.20;15.37;;;;;;;9.55;50.78;101987.41;5119824;27;20626;-64
2022/03/21 03:20:17;;;;;;;28.63;15.07;;;;;;;9.36;50.90;101989.59;5118703;27;20245;-65
2022/03/21 03:22:46;;;;;;;26.77;15.50;;;;;;;9.46;50.83;101995.13;5118323;27;20212;-65
2022/03/21 03:25:14;;;;;;;24.77;15.00;;;;;;;9.11;51.93;101992.19;5114592;27;20224;-64
2022/03/21 03:27:41;;;;;;;26.23;16.60;;;;;;;9.18;52.94;101996.13;5126415;27;20265;-64
2022/03/21 03:30:10;;;;;;;24.87;16.43;;;;;;;9.26;52.43;101993.78;5117151;27;20226;-63
2022/03/21 03:32:40;;;;;;;28.50;16.60;;;;;;;9.34;52.33;102002.06;5120096;27;20210;-64
2022/03/21 03:35:09;;;;;;;24.30;15.83;;;;;;;9.42;51.41;101999.75;5121425;27;22225;-65
2022/03/21 03:37:37;;;;;;;24.50;15.90;;;;;;;9.50;51.10;101996.63;5120369;27;20219;-66
2022/03/21 03:40:06;;;;;;;25.83;16.70;;;;;;;9.16;51.80;102000.66;5121317;27;20225;-66
2022/03/21 03:42:33;;;;;;;24.47;16.40;;;;;;;9.41;51.33;102001.56;5122058;27;20551;-64
2022/03/21 03:45:01;;;;;;;25.10;15.77;;;;;;;9.36;50.17;101998.38;5116169;27;20218;-65
2022/03/21 03:47:29;;;;;;;24.63;14.97;;;;;;;9.32;50.80;102002.16;5116886;27;20223;-64
2022/03/21 03:49:59;;;;;;;24.30;15.03;;;;;;;9.37;50.77;102002.72;5117924;27;20209;-64
2022/03/21 03:52:26;;;;;;;25.60;15.73;;;;;;;9.31;50.44;101997.84;5119263;27;20629;-65
2022/03/21 03:54:57;;;;;;;23.30;15.47;;;;;;;9.40;51.28;102004.34;5120611;27;20204;-65
2022/03/21 03:57:24;;;;;;;27.47;15.13;;;;;;;9.32;50.02;102004.81;5122336;27;20205;-64
2022/03/21 04:00:00;;;;;;;31.27;15.57;;;;;;;9.30;50.38;101998.81;5119348;28;20230;-65
2022/03/21 04:05:23;;;;;;;22.77;14.27;;;;;;;9.10;51.79;102014.31;5119505;28;20222;-63
2022/03/21 04:07:51;;;;;;;26.77;16.80;;;;;;;9.38;51.32;102004.44;5115785;27;20214;-64
2022/03/21 04:10:47;;;;;;;25.63;15.27;;;;;;;8.99;51.98;102012.34;5116893;28;20204;-65
2022/03/21 04:13:15;;;;;;;26.87;16.87;;;;;;;9.11;51.99;102000.97;5117449;28;20212;-63
2022/03/21 04:15:43;;;;;;;27.93;15.70;;;;;;;9.02;52.02;102015.66;5122924;27;20424;-63
2022/03/21 04:18:10;;;;;;;26.50;15.73;;;;;;;9.34;51.63;102018.81;5117641;28;20250;-64
2022/03/21 04:20:40;;;;;;;26.40;15.57;;;;;;;9.42;51.65;102021.78;5114193;28;20683;-65
2022/03/21 04:23:09;;;;;;;29.37;15.93;;;;;;;9.26;51.15;102028.22;5117631;28;20308;-64
2022/03/21 04:25:37;;;;;;;31.17;15.20;;;;;;;9.26;50.96;102029.06;5118262;28;20207;-65
2022/03/21 04:28:14;;;;;;;25.83;15.50;;;;;;;9.19;51.93;102035.72;5115534;28;20223;-64
2022/03/21 04:30:43;;;;;;;25.23;15.27;;;;;;;9.25;52.02;102032.66;5115575;27;20204;-64
2022/03/21 04:33:12;;;;;;;24.90;15.80;;;;;;;9.22;51.54;102035.53;5118208;28;20381;-64
2022/03/21 04:35:44;;;;;;;23.67;15.33;;;;;;;9.17;51.05;102037.63;5125064;28;20212;-64
2022/03/21 04:38:16;;;;;;;28.13;16.07;;;;;;;9.20;51.04;102042.72;5117134;28;20724;-64
2022/03/21 04:40:48;;;;;;;23.60;15.70;;;;;;;9.21;51.03;102038.28;5119881;28;20240;-64
2022/03/21 04:43:18;;;;;;;27.83;14.93;;;;;;;9.09;50.65;102050.50;5120217;28;20307;-64
2022/03/21 04:45:48;;;;;;;23.70;15.33;;;;;;;8.90;50.85;102050.00;5118508;28;20235;-65
2022/03/21 04:48:16;;;;;;;26.90;15.70;;;;;;;8.75;51.73;102045.69;5117493;28;20207;-64
2022/03/21 04:50:45;;;;;;;25.53;15.97;;;;;;;8.82;51.48;102057.56;5117161;28;20312;-65
2022/03/21 04:53:14;;;;;;;28.43;16.63;;;;;;;8.77;52.08;102054.38;5116707;28;20216;-64
2022/03/21 04:55:43;;;;;;;21.87;15.27;;;;;;;9.01;52.14;102060.75;5119989;27;20295;-64
2022/03/21 04:58:13;;;;;;;23.60;15.50;;;;;;;8.80;52.55;102060.31;5119560;28;20678;-64
2022/03/21 05:00:44;;;;;;;23.90;14.53;;;;;;;8.92;53.07;102067.47;5115034;28;20235;-64
2022/03/21 05:03:12;;;;;;;27.80;16.17;;;;;;;9.00;51.96;102067.81;5114898;28;20220;-64
2022/03/21 05:05:46;;;;;;;26.70;16.17;;;;;;;8.87;52.60;102071.38;5125145;27;20310;-64
2022/03/21 05:08:14;;;;;;;24.50;15.90;;;;;;;8.77;52.97;102070.25;5120164;27;20211;-64
2022/03/21 05:10:42;;;;;;;27.23;15.97;;;;;;;8.29;55.17;102075.00;5119201;27;20216;-64
2022/03/21 05:13:10;;;;;;;28.33;15.83;;;;;;;8.54;54.62;102069.91;5122297;27;20307;-64
2022/03/21 05:15:38;;;;;;;28.63;17.57;;;;;;;8.40;55.65;102083.13;5120350;27;20269;-65
2022/03/21 05:18:06;;;;;;;28.30;16.57;;;;;;;8.21;55.92;102074.59;5120218;27;20220;-65
2022/03/21 05:20:37;;;;;;;28.03;17.60;;;;;;;8.13;56.65;102079.50;5115861;27;20224;-64
2022/03/21 05:31:35;;;;;;;27.63;16.33;;;;;;;7.92;58.11;102084.28;5122838;27;20909;-65
2022/03/21 05:36:50;;;;;;;27.27;16.87;;;;;;;8.29;57.20;102080.28;5120150;27;20208;-64
2022/03/21 05:39:19;;;;;;;31.47;17.27;;;;;;;8.42;56.59;102083.91;5117746;27;20734;-66
2022/03/21 05:41:47;;;;;;;29.77;17.57;;;;;;;8.47;56.12;102088.88;5122962;27;20201;-64
2022/03/21 05:44:15;;;;;;;30.27;17.70;;;;;;;8.36;56.28;102086.06;5121650;27;20763;-64
2022/03/21 05:46:43;;;;;;;29.47;17.93;;;;;;;8.48;56.47;102091.44;5122985;27;20227;-64
2022/03/21 05:49:16;;;;;;;28.80;17.23;;;;;;;8.30;56.27;102090.75;5118563;27;20675;-64
2022/03/21 05:51:58;;;;;;;;;;;;;;;;;;;;;
2022/03/21 05:54:28;;;;;;;31.17;17.10;;;;;;;8.24;56.45;102092.94;5117510;27;20633;-65
2022/03/21 05:56:58;;;;;;;27.97;16.80;;;;;;;8.07;57.03;102099.25;5120511;27;20218;-65
2022/03/21 06:02:16;;;;;;;29.50;17.50;;;;;;;8.29;56.80;102101.41;5086356;27;20213;-65
2022/03/21 06:04:47;;;;;;;24.57;16.33;;;;;;;8.16;56.35;102100.47;5121402;27;20294;-65
2022/03/21 06:07:16;;;;;;;33.00;17.60;;;;;;;8.14;56.47;102113.78;5119034;27;20203;-65
2022/03/21 06:09:45;;;;;;;29.07;16.93;;;;;;;8.21;56.08;102104.53;5117466;27;20207;-65
2022/03/21 06:12:14;;;;;;;31.30;17.50;;;;;;;8.37;55.44;102101.81;5119553;27;20205;-65
2022/03/21 06:14:41;;;;;;;31.30;17.17;;;;;;;8.34;54.90;102103.81;5118883;27;20234;-65
2022/03/21 06:17:09;;;;;;;27.10;16.53;;;;;;;8.21;55.12;102108.97;5122075;27;20658;-65
2022/03/21 06:19:37;;;;;;;28.93;17.53;;;;;;;8.42;54.17;102112.13;5117006;27;20234;-66
2022/03/21 06:22:05;;;;;;;29.23;16.77;;;;;;;8.78;52.83;102119.56;5117980;27;20222;-64
2022/03/21 06:24:33;;;;;;;22.90;14.70;;;;;;;8.70;52.31;102127.16;5122443;27;20310;-64
2022/03/21 06:27:02;;;;;;;27.80;14.97;;;;;;;8.73;52.12;102127.78;5124177;27;20205;-65
2022/03/21 06:29:30;;;;;;;26.33;14.87;;;;;;;8.92;51.96;102133.63;5120649;27;20311;-65
2022/03/21 06:32:00;;;;;;;26.47;15.67;;;;;;;9.03;51.68;102135.59;5119730;27;20812;-65
2022/03/21 06:34:31;;;;;;;27.47;15.27;;;;;;;9.13;51.39;102139.34;5121434;27;20345;-65
2022/03/21 06:37:06;;;;;;;23.10;13.90;;;;;;;8.88;50.98;102136.56;5122424;27;20248;-64
2022/03/21 06:39:39;;;;;;;24.83;14.73;;;;;;;8.90;50.92;102134.66;5121149;27;20683;-65
2022/03/21 06:42:11;;;;;;;22.67;14.30;;;;;;;9.02;50.69;102144.47;5123245;27;20795;-66
2022/03/21 06:44:39;;;;;;;23.57;14.63;;;;;;;9.19;50.13;102141.59;5122964;27;20209;-65
2022/03/21 06:47:06;;;;;;;23.50;15.13;;;;;;;9.27;49.93;102149.91;5122269;27;20237;-65
2022/03/21 06:49:34;;;;;;;26.40;15.57;;;;;;;9.12;50.09;102148.25;5122524;27;20247;-65
2022/03/21 06:52:06;;;;;;;24.87;15.27;;;;;;;9.30;49.56;102146.19;5123385;27;20585;-65
2022/03/21 06:54:35;;;;;;;26.10;15.20;;;;;;;9.14;49.88;102151.66;5126364;27;20292;-64
2022/03/21 06:57:05;;;;;;;27.33;15.93;;;;;;;9.51;49.33;102155.38;5117897;27;20248;-64
2022/03/21 06:59:34;;;;;;;24.40;15.53;;;;;;;9.42;49.41;102153.34;5121470;27;20294;-68
2022/03/21 07:02:02;;;;;;;24.97;15.47;;;;;;;9.69;48.68;102153.31;5121240;27;20233;-67
2022/03/21 07:04:31;;;;;;;31.30;15.93;;;;;;;9.66;48.81;102157.03;5120865;27;20247;-71
2022/03/21 07:07:02;;;;;;;27.23;16.03;;;;;;;9.72;48.50;102158.44;5123419;27;20308;-65
2022/03/21 07:09:34;;;;;;;31.30;19.70;;;;;;;9.90;47.96;102170.44;5121886;27;20223;-64
2022/03/21 07:12:06;;;;;;;26.73;17.00;;;;;;;9.85;47.46;102167.25;5122155;27;20212;-64
2022/03/21 07:14:35;;;;;;;28.43;16.67;;;;;;;9.91;47.60;102177.47;5122440;27;20239;-63
2022/03/21 07:17:03;;;;;;;27.60;16.67;;;;;;;10.17;47.42;102175.69;5125677;27;20637;-64
2022/03/21 07:19:31;;;;;;;22.63;13.80;;;;;;;10.36;46.40;102180.63;5118834;27;20221;-67
2022/03/21 07:22:00;;;;;;;22.27;14.27;;;;;;;10.33;45.01;102172.88;5117069;27;20225;-67
2022/03/21 07:24:28;;;;;;;23.57;13.77;;;;;;;10.11;43.94;102184.91;5117820;27;20205;-67
2022/03/21 07:26:56;;;;;;;22.60;14.03;;;;;;;10.43;43.86;102184.56;5118016;27;20212;-67
2022/03/21 07:29:23;;;;;;;22.20;14.70;;;;;;;10.48;43.70;102183.28;5116928;27;20204;-67
2022/03/21 07:31:53;;;;;;;21.50;13.10;;;;;;;10.62;43.45;102190.28;5116675;27;20587;-67
2022/03/21 07:34:21;;;;;;;20.57;13.00;;;;;;;10.80;43.28;102186.34;5121206;27;20201;-68
2022/03/21 07:36:48;;;;;;;20.23;13.43;;;;;;;10.64;42.44;102187.53;5118866;27;20211;-67
2022/03/21 07:39:17;;;;;;;18.30;12.73;;;;;;;10.78;42.41;102190.91;5116689;27;20202;-68
2022/03/21 07:41:44;;;;;;;18.73;13.07;;;;;;;10.73;42.66;102197.50;5119424;27;20376;-67
2022/03/21 07:47:17;;;;;;;20.33;13.13;;;;;;;10.36;42.87;102193.88;5117675;27;20632;-67
2022/03/21 07:47:20;;;;;;;19.30;12.73;;;;;;;10.38;43.43;102199.94;5121996;27;20315;-67
2022/03/21 07:49:49;;;;;;;22.63;13.73;;;;;;;10.50;43.56;102196.44;5124207;27;20202;-67
2022/03/21 07:52:19;;;;;;;20.83;13.17;;;;;;;10.52;43.31;102198.03;5118756;27;20203;-68
2022/03/21 07:54:47;;;;;;;20.10;13.00;;;;;;;10.56;43.28;102196.00;5117831;27;20200;-68
2022/03/21 07:57:15;;;;;;;21.90;13.93;;;;;;;10.88;42.84;102197.28;5116414;27;20590;-67
2022/03/21 07:59:42;;;;;;;22.57;13.30;;;;;;;11.03;42.78;102195.31;5119911;27;20735;-67
2022/03/21 08:02:11;;;;;;;22.33;13.33;;;;;;;11.11;42.82;102200.94;5119645;28;20228;-69
2022/03/21 08:04:41;;;;;;;18.30;11.97;;;;;;;11.18;42.81;102196.88;5118451;28;20798;-66
2022/03/21 08:07:16;;;;;;;19.63;13.20;;;;;;;11.23;42.71;102200.06;5120608;28;20211;-67
2022/03/21 08:09:46;;;;;;;20.10;12.23;;;;;;;11.32;41.19;102201.22;5118358;28;20223;-67
2022/03/21 08:12:17;;;;;;;21.03;12.20;;;;;;;11.41;41.66;102200.53;5120708;28;20619;-68
2022/03/21 08:14:45;;;;;;;19.00;12.43;;;;;;;11.54;40.33;102206.66;5117319;27;20240;-68
2022/03/21 08:17:14;;;;;;;20.03;12.67;;;;;;;11.52;40.66;102203.25;5120182;27;20201;-68
2022/03/21 08:19:52;;;;;;;21.50;13.20;;;;;;;11.75;40.09;102204.25;5115991;28;20213;-66
2022/03/21 08:22:29;;;;;;;19.07;12.77;;;;;;;11.92;40.26;102205.66;5116492;27;20206;-67
2022/03/21 08:25:02;;;;;;;20.67;13.07;;;;;;;11.99;40.23;102204.22;5113670;28;20208;-68
2022/03/21 08:27:32;;;;;;;20.57;13.13;;;;;;;12.22;38.48;102203.38;5116098;27;20213;-69
2022/03/21 08:30:10;;;;;;;20.50;13.87;;;;;;;15.14;34.78;102191.63;5120215;28;20289;-70
2022/03/21 08:32:53;;;;;;;18.27;13.33;;;;;;;19.54;28.12;102198.25;5118991;27;20205;-67
2022/03/21 08:35:21;;;;;;;21.47;13.20;;;;;;;21.47;25.56;102194.56;5117962;27;20196;-66
2022/03/21 08:37:49;;;;;;;18.57;13.27;;;;;;;22.62;24.04;102196.16;5119207;27;20579;-67
2022/03/21 08:40:18;;;;;;;21.53;13.67;;;;;;;22.97;24.21;102194.59;5116971;27;20198;-67
2022/03/21 08:42:47;;;;;;;22.43;14.43;;;;;;;24.24;22.84;102199.34;5122065;27;20225;-67
2022/03/21 08:45:15;;;;;;;23.30;14.40;;;;;;;25.35;21.60;102198.34;5119910;27;20230;-67
2022/03/21 08:47:44;;;;;;;21.23;14.67;;;;;;;25.90;20.94;102196.38;5127784;27;20236;-66
2022/03/21 08:50:12;;;;;;;18.27;14.03;;;;;;;26.39;20.65;102201.44;5125398;27;20209;-67
2022/03/21 08:52:40;;;;;;;23.70;15.93;;;;;;;26.80;19.86;102193.00;5123545;27;20201;-67
2022/03/21 08:55:09;;;;;;;23.20;15.10;;;;;;;27.28;19.25;102197.00;5117566;27;20215;-66
2022/03/21 08:57:37;;;;;;;18.48;15.90;;;;;;;27.92;19.27;102185.09;5119225;27;20206;-67
2022/03/21 09:00:10;;;;;;;22.00;15.93;;;;;;;27.53;18.80;102190.81;5123399;27;20212;-67
2022/03/21 09:02:39;;;;;;;19.75;15.55;;;;;;;28.60;18.49;102190.56;5125153;27;20213;-67
2022/03/21 09:05:13;;;;;;;21.13;16.02;;;;;;;29.26;18.02;102189.00;5125529;27;20242;-67
2022/03/21 09:07:41;;;;;;;18.95;15.68;;;;;;;28.71;17.57;102192.56;5124029;27;20208;-68
2022/03/21 09:10:13;;;;;;;19.33;16.00;;;;;;;30.33;17.31;102187.16;5124609;27;20231;-66
2022/03/21 09:12:43;;;;;;;21.15;17.20;;;;;;;29.18;17.00;102185.53;5118428;27;20194;-67
2022/03/21 09:15:12;;;;;;;20.52;15.90;;;;;;;29.68;17.77;102177.03;5120549;27;20229;-68
2022/03/21 09:17:41;;;;;;;20.55;17.35;;;;;;;29.34;16.58;102178.56;5122490;27;20802;-66
2022/03/21 09:20:13;;;;;;;23.27;16.63;;;;;;;28.86;17.25;102178.56;5123325;27;20241;-67
2022/03/21 09:22:41;;;;;;;20.25;16.92;;;;;;;29.51;17.05;102176.88;5124536;27;20248;-66
2022/03/21 09:25:10;;;;;;;21.60;16.60;;;;;;;29.90;17.03;102174.59;5122550;27;20207;-67
2022/03/21 09:27:41;;;;;;;19.25;16.73;;;;;;;29.58;17.50;102170.47;5124246;27;20209;-67
2022/03/21 09:30:10;;;;;;;25.42;18.08;;;;;;;29.45;17.75;102171.53;5120997;27;20652;-67
2022/03/21 09:32:37;;;;;;;20.90;16.98;;;;;;;28.32;18.57;102173.88;5123244;27;20287;-67
2022/03/21 09:35:06;;;;;;;18.83;16.75;;;;;;;27.44;19.69;102164.88;5123648;27;20201;-67
2022/03/21 09:37:36;;;;;;;23.95;18.02;;;;;;;29.23;18.52;102167.59;5120279;27;20286;-66
2022/03/21 09:40:07;;;;;;;24.30;17.45;;;;;;;26.82;19.73;102169.13;5121677;27;20288;-67
2022/03/21 09:42:36;;;;;;;20.65;17.02;;;;;;;23.99;21.57;102174.53;5120968;27;20240;-67
2022/03/21 09:45:08;;;;;;;19.40;17.30;;;;;;;23.84;22.29;102173.75;5121623;27;20201;-66
2022/03/21 09:50:35;;;;;;;21.55;16.65;;;;;;;24.90;20.96;102168.06;5119065;27;20197;-66
2022/03/21 09:53:08;;;;;;;20.23;17.08;;;;;;;24.49;21.85;102161.78;5123996;27;20202;-66
2022/03/21 09:55:39;;;;;;;24.23;17.58;;;;;;;25.69;20.66;102162.06;5120394;27;20194;-68
2022/03/21 09:58:10;;;;;;;21.23;18.88;;;;;;;27.00;19.57;102152.97;5118081;27;20694;-67
2022/03/21 10:00:43;;;;;;;25.17;18.15;;;;;;;28.58;18.03;102151.78;5122674;27;20576;-66
2022/03/21 10:03:11;;;;;;;22.27;17.40;;;;;;;27.66;18.67;102149.88;5117253;27;20226;-67
2022/03/21 10:05:41;;;;;;;23.08;18.20;;;;;;;24.67;21.79;102151.25;5117049;27;20228;-67
2022/03/21 10:08:24;;;;;;;22.20;17.23;;;;;;;28.40;19.75;102146.31;5121460;27;20300;-66
2022/03/21 10:10:59;;;;;;;21.38;17.73;;;;;;;30.35;17.57;102141.19;5122037;27;20217;-66
2022/03/21 10:13:29;;;;;;;20.00;16.63;;;;;;;28.25;18.96;102143.09;5118957;27;20204;-67
2022/03/21 10:16:08;;;;;;;21.55;17.98;;;;;;;24.19;21.98;102153.81;5122595;27;20228;-67
2022/03/21 10:18:36;;;;;;;24.70;18.20;;;;;;;25.86;20.54;102152.47;5124376;27;20300;-67
2022/03/21 10:21:11;;;;;;;21.15;17.55;;;;;;;27.80;19.09;102145.13;5125090;27;20220;-66
2022/03/21 10:23:41;;;;;;;25.35;18.10;;;;;;;28.91;18.18;102140.50;5114137;27;20206;-67
2022/03/21 10:26:26;;;;;;;25.15;18.42;;;;;;;30.13;17.96;102139.09;5117134;27;20251;-66
2022/03/21 10:28:56;;;;;;;27.20;18.23;;;;;;;29.75;17.99;102139.50;5119951;27;20664;-66
2022/03/21 10:31:38;;;;;;;24.02;17.33;;;;;;;27.12;19.27;102134.88;5117100;27;20336;-66
2022/03/21 10:34:08;;;;;;;22.55;18.30;;;;;;;26.88;19.89;102143.75;5118557;27;20513;-66
2022/03/21 10:36:53;;;;;;;28.00;19.73;;;;;;;25.13;21.72;102139.78;5120086;27;20252;-66
2022/03/21 10:39:22;;;;;;;21.50;19.05;;;;;;;26.19;21.26;102133.44;5119219;27;20277;-65
2022/03/21 10:41:56;;;;;;;23.83;19.17;;;;;;;27.56;19.32;102133.16;5116022;27;20240;-65
2022/03/21 10:44:24;;;;;;;24.23;18.70;;;;;;;24.89;21.89;102125.66;5115117;27;20320;-65
2022/03/21 10:46:58;;;;;;;21.52;17.92;;;;;;;25.94;21.57;102132.44;5118076;27;20522;-65
2022/03/21 10:49:30;;;;;;;23.73;18.55;;;;;;;26.69;20.16;102131.06;5117731;27;20763;-66
2022/03/21 10:51:59;;;;;;;24.02;19.30;;;;;;;25.20;21.49;102135.22;5116492;27;20237;-64
2022/03/21 10:54:48;;;;;;;26.45;18.52;;;;;;;25.37;21.64;102134.63;5119889;27;20201;-66
2022/03/21 10:57:31;;;;;;;20.73;18.20;;;;;;;29.13;19.26;102122.53;5119142;27;20209;-66
2022/03/21 11:00:20;;;;;;;24.65;19.13;;;;;;;29.32;18.22;102112.38;5118082;27;20583;-66
2022/03/21 11:02:53;;;;;;;19.85;17.35;;;;;;;28.14;19.37;102124.72;5115007;27;20317;-64
2022/03/21 11:05:23;;;;;;;22.40;17.05;;;;;;;26.80;20.52;102120.34;5118685;27;20539;-65
2022/03/21 11:07:53;;;;;;;21.67;18.77;;;;;;;23.46;24.46;102119.00;5120944;27;20662;-65
2022/03/21 11:10:24;;;;;;;21.98;18.02;;;;;;;24.78;23.51;102112.69;5121892;27;20202;-66
2022/03/21 11:12:54;;;;;;;27.90;19.23;;;;;;;23.47;23.95;102110.69;5121390;27;20225;-65
2022/03/21 11:15:21;;;;;;;22.58;17.50;;;;;;;22.87;25.48;102111.03;5119719;27;20336;-67
2022/03/21 11:17:49;;;;;;;23.15;18.08;;;;;;;22.66;26.20;102100.97;5120067;27;20220;-67
2022/03/21 11:20:17;;;;;;;21.55;18.80;;;;;;;22.85;25.40;102103.13;5120098;27;20210;-67
2022/03/21 11:22:45;;;;;;;22.42;18.17;;;;;;;23.22;25.60;102107.47;5120702;27;20233;-67
2022/03/21 11:25:15;;;;;;;23.55;17.95;;;;;;;23.42;24.77;102102.28;5119471;27;20208;-66
2022/03/21 11:28:06;;;;;;;24.83;18.20;;;;;;;23.39;25.52;102105.41;5119378;27;20205;-66
2022/03/21 11:30:53;;;;;;;28.08;18.00;;;;;;;23.14;25.48;102102.19;5121684;27;20208;-68
2022/03/21 11:33:33;;;;;;;26.90;17.83;;;;;;;23.72;25.65;102104.88;5128643;27;20287;-66
2022/03/21 11:36:03;;;;;;;23.75;17.85;;;;;;;23.13;25.71;102102.41;5124265;27;20224;-65
2022/03/21 11:38:34;;;;;;;19.83;17.02;;;;;;;23.16;25.36;102102.00;5127855;27;20553;-66
2022/03/21 11:41:14;;;;;;;21.65;18.33;;;;;;;23.77;25.21;102095.13;5126817;27;20304;-66
2022/03/21 11:43:45;;;;;;;23.27;18.00;;;;;;;23.69;24.74;102094.44;5119388;27;20701;-66
2022/03/21 11:46:37;;;;;;;23.70;18.92;;;;;;;24.32;24.57;102093.47;5115427;27;20229;-67
2022/03/21 11:49:27;;;;;;;21.25;18.17;;;;;;;23.54;25.07;102089.94;5104800;27;20216;-65
2022/03/21 11:51:56;;;;;;;21.30;17.55;;;;;;;23.81;24.46;102082.03;5116808;27;20239;-66
2022/03/21 11:54:28;;;;;;;20.40;17.30;;;;;;;23.76;25.52;102077.19;5118768;27;20370;-66